<?xml version="1.0" encoding="UTF-8" standalone="no" ?>
<gpx xmlns="http://www.topografix.com/GPX/1/1" xmlns:xsi="http://www.w3.org/2001/XMLSchema-instance" xsi:schemaLocation="http://www.topografix.com/GPX/1/1 http://www.topografix.com/GPX/1/1/gpx.xsd" version="1.1" creator="VisuGPX - https://www.visugpx.com">
  <metadata>
    <name>MS Etape 3: Sidiailles - Huriel</name>
    <desc><![CDATA[Sentier des Maîtres Sonneurs. Etape 3: Sidiaillles (18) - Huriel (03)

Détail voir site [url]www.sentiermaitressonneur.com[/url]]]></desc>
  </metadata>
  <wpt lat="46.48578" lon="2.31122">
    <ele>345</ele>
    <name><![CDATA[Point de passage 1]]></name>
    <type><![CDATA[GENERIC]]></type>
  </wpt>
  <wpt lat="46.37574" lon="2.47379">
    <ele>323</ele>
    <name><![CDATA[Point de passage 2]]></name>
    <type><![CDATA[GENERIC]]></type>
  </wpt>
  <trk>
    <name><![CDATA[MS Sidiailles - Huriel]]></name>
    <trkseg>
      <trkpt lat="46.48578" lon="2.31122">
        <ele>345</ele>
        <time>2025-07-27T05:45:35.000Z</time>
      </trkpt>
      <trkpt lat="46.4849" lon="2.31323">
        <ele>343</ele>
        <time>2025-07-27T05:48:43.000Z</time>
      </trkpt>
      <trkpt lat="46.48476" lon="2.31377">
        <ele>343</ele>
        <time>2025-07-27T05:49:29.000Z</time>
      </trkpt>
      <trkpt lat="46.48421" lon="2.31671">
        <ele>340</ele>
        <time>2025-07-27T05:53:29.000Z</time>
      </trkpt>
      <trkpt lat="46.48403" lon="2.31753">
        <ele>338</ele>
        <time>2025-07-27T05:54:37.000Z</time>
      </trkpt>
      <trkpt lat="46.4839" lon="2.3184">
        <ele>336</ele>
        <time>2025-07-27T05:55:48.000Z</time>
      </trkpt>
      <trkpt lat="46.48396" lon="2.31902">
        <ele>334</ele>
        <time>2025-07-27T05:56:37.000Z</time>
      </trkpt>
      <trkpt lat="46.48387" lon="2.32056">
        <ele>327</ele>
        <time>2025-07-27T05:58:39.000Z</time>
      </trkpt>
      <trkpt lat="46.48397" lon="2.32226">
        <ele>323</ele>
        <time>2025-07-27T06:00:53.000Z</time>
      </trkpt>
      <trkpt lat="46.48357" lon="2.3233">
        <ele>319</ele>
        <time>2025-07-27T06:02:27.000Z</time>
      </trkpt>
      <trkpt lat="46.48326" lon="2.32453">
        <ele>317</ele>
        <time>2025-07-27T06:04:11.000Z</time>
      </trkpt>
      <trkpt lat="46.48301" lon="2.32552">
        <ele>308</ele>
        <time>2025-07-27T06:05:34.000Z</time>
      </trkpt>
      <trkpt lat="46.48297" lon="2.32627">
        <ele>306</ele>
        <time>2025-07-27T06:06:34.000Z</time>
      </trkpt>
      <trkpt lat="46.48297" lon="2.32734">
        <ele>302</ele>
        <time>2025-07-27T06:07:58.000Z</time>
      </trkpt>
      <trkpt lat="46.48295" lon="2.32775">
        <ele>297</ele>
        <time>2025-07-27T06:08:31.000Z</time>
      </trkpt>
      <trkpt lat="46.48295" lon="2.32801">
        <ele>292</ele>
        <time>2025-07-27T06:08:51.000Z</time>
      </trkpt>
      <trkpt lat="46.48299" lon="2.32814">
        <ele>290</ele>
        <time>2025-07-27T06:09:02.000Z</time>
      </trkpt>
      <trkpt lat="46.48309" lon="2.32823">
        <ele>288</ele>
        <time>2025-07-27T06:09:15.000Z</time>
      </trkpt>
      <trkpt lat="46.48326" lon="2.32836">
        <ele>286</ele>
        <time>2025-07-27T06:09:38.000Z</time>
      </trkpt>
      <trkpt lat="46.48325" lon="2.3285">
        <ele>283</ele>
        <time>2025-07-27T06:09:50.000Z</time>
      </trkpt>
      <trkpt lat="46.48319" lon="2.32859">
        <ele>281</ele>
        <time>2025-07-27T06:09:59.000Z</time>
      </trkpt>
      <trkpt lat="46.48279" lon="2.32897">
        <ele>276</ele>
        <time>2025-07-27T06:10:54.000Z</time>
      </trkpt>
      <trkpt lat="46.48266" lon="2.32902">
        <ele>275</ele>
        <time>2025-07-27T06:11:09.000Z</time>
      </trkpt>
      <trkpt lat="46.48226" lon="2.32888">
        <ele>279</ele>
        <time>2025-07-27T06:12:37.000Z</time>
      </trkpt>
      <trkpt lat="46.48193" lon="2.32925">
        <ele>278</ele>
        <time>2025-07-27T06:13:24.000Z</time>
      </trkpt>
      <trkpt lat="46.48201" lon="2.32967">
        <ele>271</ele>
        <time>2025-07-27T06:13:58.000Z</time>
      </trkpt>
      <trkpt lat="46.48245" lon="2.33098">
        <ele>287</ele>
        <time>2025-07-27T06:18:37.000Z</time>
      </trkpt>
      <trkpt lat="46.48281" lon="2.33114">
        <ele>288</ele>
        <time>2025-07-27T06:19:30.000Z</time>
      </trkpt>
      <trkpt lat="46.48316" lon="2.33139">
        <ele>295</ele>
        <time>2025-07-27T06:21:27.000Z</time>
      </trkpt>
      <trkpt lat="46.48375" lon="2.3318">
        <ele>305</ele>
        <time>2025-07-27T06:24:26.000Z</time>
      </trkpt>
      <trkpt lat="46.48385" lon="2.33193">
        <ele>308</ele>
        <time>2025-07-27T06:25:12.000Z</time>
      </trkpt>
      <trkpt lat="46.48445" lon="2.33266">
        <ele>315</ele>
        <time>2025-07-27T06:27:53.000Z</time>
      </trkpt>
      <trkpt lat="46.48508" lon="2.33352">
        <ele>329</ele>
        <time>2025-07-27T06:31:56.000Z</time>
      </trkpt>
      <trkpt lat="46.4855" lon="2.33351">
        <ele>332</ele>
        <time>2025-07-27T06:33:15.000Z</time>
      </trkpt>
      <trkpt lat="46.48559" lon="2.33329">
        <ele>331</ele>
        <time>2025-07-27T06:33:35.000Z</time>
      </trkpt>
      <trkpt lat="46.48576" lon="2.33301">
        <ele>329</ele>
        <time>2025-07-27T06:34:04.000Z</time>
      </trkpt>
      <trkpt lat="46.48599" lon="2.33275">
        <ele>328</ele>
        <time>2025-07-27T06:34:38.000Z</time>
      </trkpt>
      <trkpt lat="46.48638" lon="2.33256">
        <ele>324</ele>
        <time>2025-07-27T06:35:25.000Z</time>
      </trkpt>
      <trkpt lat="46.48661" lon="2.33258">
        <ele>322</ele>
        <time>2025-07-27T06:35:51.000Z</time>
      </trkpt>
      <trkpt lat="46.48739" lon="2.33294">
        <ele>317</ele>
        <time>2025-07-27T06:37:24.000Z</time>
      </trkpt>
      <trkpt lat="46.48766" lon="2.33318">
        <ele>316</ele>
        <time>2025-07-27T06:38:01.000Z</time>
      </trkpt>
      <trkpt lat="46.48806" lon="2.3336">
        <ele>314</ele>
        <time>2025-07-27T06:38:57.000Z</time>
      </trkpt>
      <trkpt lat="46.48858" lon="2.33427">
        <ele>315</ele>
        <time>2025-07-27T06:40:27.000Z</time>
      </trkpt>
      <trkpt lat="46.48882" lon="2.3346">
        <ele>315</ele>
        <time>2025-07-27T06:41:05.000Z</time>
      </trkpt>
      <trkpt lat="46.48925" lon="2.33499">
        <ele>315</ele>
        <time>2025-07-27T06:42:03.000Z</time>
      </trkpt>
      <trkpt lat="46.4894" lon="2.33506">
        <ele>315</ele>
        <time>2025-07-27T06:42:21.000Z</time>
      </trkpt>
      <trkpt lat="46.48954" lon="2.33507">
        <ele>316</ele>
        <time>2025-07-27T06:42:48.000Z</time>
      </trkpt>
      <trkpt lat="46.48979" lon="2.33496">
        <ele>317</ele>
        <time>2025-07-27T06:43:28.000Z</time>
      </trkpt>
      <trkpt lat="46.48997" lon="2.33494">
        <ele>318</ele>
        <time>2025-07-27T06:43:59.000Z</time>
      </trkpt>
      <trkpt lat="46.48993" lon="2.33631">
        <ele>321</ele>
        <time>2025-07-27T06:46:18.000Z</time>
      </trkpt>
      <trkpt lat="46.48979" lon="2.3369">
        <ele>323</ele>
        <time>2025-07-27T06:47:28.000Z</time>
      </trkpt>
      <trkpt lat="46.48877" lon="2.33934">
        <ele>339</ele>
        <time>2025-07-27T06:53:58.000Z</time>
      </trkpt>
      <trkpt lat="46.48847" lon="2.34011">
        <ele>345</ele>
        <time>2025-07-27T06:56:09.000Z</time>
      </trkpt>
      <trkpt lat="46.48777" lon="2.34231">
        <ele>357</ele>
        <time>2025-07-27T07:01:24.000Z</time>
      </trkpt>
      <trkpt lat="46.48766" lon="2.34181">
        <ele>356</ele>
        <time>2025-07-27T07:02:06.000Z</time>
      </trkpt>
      <trkpt lat="46.4876" lon="2.34183">
        <ele>356</ele>
        <time>2025-07-27T07:02:13.000Z</time>
      </trkpt>
      <trkpt lat="46.48743" lon="2.3421">
        <ele>355</ele>
        <time>2025-07-27T07:02:43.000Z</time>
      </trkpt>
      <trkpt lat="46.48698" lon="2.34309">
        <ele>349</ele>
        <time>2025-07-27T07:04:16.000Z</time>
      </trkpt>
      <trkpt lat="46.48672" lon="2.3438">
        <ele>349</ele>
        <time>2025-07-27T07:05:19.000Z</time>
      </trkpt>
      <trkpt lat="46.48668" lon="2.34413">
        <ele>350</ele>
        <time>2025-07-27T07:05:56.000Z</time>
      </trkpt>
      <trkpt lat="46.48664" lon="2.34442">
        <ele>351</ele>
        <time>2025-07-27T07:06:30.000Z</time>
      </trkpt>
      <trkpt lat="46.48665" lon="2.34465">
        <ele>352</ele>
        <time>2025-07-27T07:06:59.000Z</time>
      </trkpt>
      <trkpt lat="46.48656" lon="2.34506">
        <ele>355</ele>
        <time>2025-07-27T07:08:03.000Z</time>
      </trkpt>
      <trkpt lat="46.48629" lon="2.34584">
        <ele>359</ele>
        <time>2025-07-27T07:09:54.000Z</time>
      </trkpt>
      <trkpt lat="46.48612" lon="2.34616">
        <ele>360</ele>
        <time>2025-07-27T07:10:35.000Z</time>
      </trkpt>
      <trkpt lat="46.4859" lon="2.34627">
        <ele>359</ele>
        <time>2025-07-27T07:11:02.000Z</time>
      </trkpt>
      <trkpt lat="46.48594" lon="2.34645">
        <ele>359</ele>
        <time>2025-07-27T07:11:17.000Z</time>
      </trkpt>
      <trkpt lat="46.48602" lon="2.34657">
        <ele>359</ele>
        <time>2025-07-27T07:11:30.000Z</time>
      </trkpt>
      <trkpt lat="46.48605" lon="2.34667">
        <ele>359</ele>
        <time>2025-07-27T07:11:39.000Z</time>
      </trkpt>
      <trkpt lat="46.48593" lon="2.34722">
        <ele>358</ele>
        <time>2025-07-27T07:12:24.000Z</time>
      </trkpt>
      <trkpt lat="46.48555" lon="2.34847">
        <ele>350</ele>
        <time>2025-07-27T07:14:12.000Z</time>
      </trkpt>
      <trkpt lat="46.48543" lon="2.34871">
        <ele>348</ele>
        <time>2025-07-27T07:14:36.000Z</time>
      </trkpt>
      <trkpt lat="46.4853" lon="2.3489">
        <ele>347</ele>
        <time>2025-07-27T07:14:57.000Z</time>
      </trkpt>
      <trkpt lat="46.48418" lon="2.34997">
        <ele>348</ele>
        <time>2025-07-27T07:17:41.000Z</time>
      </trkpt>
      <trkpt lat="46.48401" lon="2.35023">
        <ele>348</ele>
        <time>2025-07-27T07:18:09.000Z</time>
      </trkpt>
      <trkpt lat="46.48391" lon="2.35059">
        <ele>348</ele>
        <time>2025-07-27T07:18:40.000Z</time>
      </trkpt>
      <trkpt lat="46.48385" lon="2.35098">
        <ele>347</ele>
        <time>2025-07-27T07:19:11.000Z</time>
      </trkpt>
      <trkpt lat="46.48373" lon="2.35159">
        <ele>346</ele>
        <time>2025-07-27T07:20:02.000Z</time>
      </trkpt>
      <trkpt lat="46.48358" lon="2.35219">
        <ele>346</ele>
        <time>2025-07-27T07:20:52.000Z</time>
      </trkpt>
      <trkpt lat="46.48316" lon="2.35331">
        <ele>344</ele>
        <time>2025-07-27T07:22:33.000Z</time>
      </trkpt>
      <trkpt lat="46.48316" lon="2.35336">
        <ele>343</ele>
        <time>2025-07-27T07:22:37.000Z</time>
      </trkpt>
      <trkpt lat="46.48311" lon="2.35354">
        <ele>342</ele>
        <time>2025-07-27T07:22:52.000Z</time>
      </trkpt>
      <trkpt lat="46.48294" lon="2.35399">
        <ele>342</ele>
        <time>2025-07-27T07:23:33.000Z</time>
      </trkpt>
      <trkpt lat="46.48268" lon="2.35445">
        <ele>342</ele>
        <time>2025-07-27T07:24:20.000Z</time>
      </trkpt>
      <trkpt lat="46.48233" lon="2.3549">
        <ele>345</ele>
        <time>2025-07-27T07:25:45.000Z</time>
      </trkpt>
      <trkpt lat="46.48199" lon="2.35524">
        <ele>347</ele>
        <time>2025-07-27T07:26:52.000Z</time>
      </trkpt>
      <trkpt lat="46.4818" lon="2.35535">
        <ele>346</ele>
        <time>2025-07-27T07:27:16.000Z</time>
      </trkpt>
      <trkpt lat="46.48165" lon="2.35553">
        <ele>345</ele>
        <time>2025-07-27T07:27:38.000Z</time>
      </trkpt>
      <trkpt lat="46.48148" lon="2.35594">
        <ele>343</ele>
        <time>2025-07-27T07:28:16.000Z</time>
      </trkpt>
      <trkpt lat="46.4811" lon="2.35677">
        <ele>338</ele>
        <time>2025-07-27T07:29:34.000Z</time>
      </trkpt>
      <trkpt lat="46.48082" lon="2.35699">
        <ele>336</ele>
        <time>2025-07-27T07:30:10.000Z</time>
      </trkpt>
      <trkpt lat="46.48062" lon="2.35717">
        <ele>335</ele>
        <time>2025-07-27T07:30:37.000Z</time>
      </trkpt>
      <trkpt lat="46.48046" lon="2.35746">
        <ele>333</ele>
        <time>2025-07-27T07:31:06.000Z</time>
      </trkpt>
      <trkpt lat="46.48041" lon="2.35783">
        <ele>331</ele>
        <time>2025-07-27T07:31:36.000Z</time>
      </trkpt>
      <trkpt lat="46.48042" lon="2.35815">
        <ele>330</ele>
        <time>2025-07-27T07:32:01.000Z</time>
      </trkpt>
      <trkpt lat="46.48049" lon="2.35856">
        <ele>330</ele>
        <time>2025-07-27T07:32:34.000Z</time>
      </trkpt>
      <trkpt lat="46.48045" lon="2.35868">
        <ele>330</ele>
        <time>2025-07-27T07:32:45.000Z</time>
      </trkpt>
      <trkpt lat="46.48005" lon="2.35844">
        <ele>329</ele>
        <time>2025-07-27T07:33:34.000Z</time>
      </trkpt>
      <trkpt lat="46.47985" lon="2.3584">
        <ele>332</ele>
        <time>2025-07-27T07:34:29.000Z</time>
      </trkpt>
      <trkpt lat="46.47974" lon="2.3585">
        <ele>333</ele>
        <time>2025-07-27T07:34:54.000Z</time>
      </trkpt>
      <trkpt lat="46.4793" lon="2.3592">
        <ele>339</ele>
        <time>2025-07-27T07:37:10.000Z</time>
      </trkpt>
      <trkpt lat="46.47905" lon="2.35947">
        <ele>342</ele>
        <time>2025-07-27T07:38:17.000Z</time>
      </trkpt>
      <trkpt lat="46.47866" lon="2.35974">
        <ele>345</ele>
        <time>2025-07-27T07:39:36.000Z</time>
      </trkpt>
      <trkpt lat="46.47858" lon="2.35915">
        <ele>345</ele>
        <time>2025-07-27T07:40:24.000Z</time>
      </trkpt>
      <trkpt lat="46.47827" lon="2.3581">
        <ele>343</ele>
        <time>2025-07-27T07:41:54.000Z</time>
      </trkpt>
      <trkpt lat="46.47791" lon="2.35695">
        <ele>339</ele>
        <time>2025-07-27T07:43:34.000Z</time>
      </trkpt>
      <trkpt lat="46.47781" lon="2.3567">
        <ele>337</ele>
        <time>2025-07-27T07:43:57.000Z</time>
      </trkpt>
      <trkpt lat="46.47753" lon="2.35612">
        <ele>335</ele>
        <time>2025-07-27T07:44:53.000Z</time>
      </trkpt>
      <trkpt lat="46.47656" lon="2.35446">
        <ele>330</ele>
        <time>2025-07-27T07:47:45.000Z</time>
      </trkpt>
      <trkpt lat="46.47592" lon="2.35338">
        <ele>327</ele>
        <time>2025-07-27T07:49:37.000Z</time>
      </trkpt>
      <trkpt lat="46.4753" lon="2.35228">
        <ele>321</ele>
        <time>2025-07-27T07:51:29.000Z</time>
      </trkpt>
      <trkpt lat="46.47528" lon="2.35206">
        <ele>320</ele>
        <time>2025-07-27T07:51:47.000Z</time>
      </trkpt>
      <trkpt lat="46.47533" lon="2.35164">
        <ele>317</ele>
        <time>2025-07-27T07:52:20.000Z</time>
      </trkpt>
      <trkpt lat="46.47531" lon="2.35092">
        <ele>313</ele>
        <time>2025-07-27T07:53:16.000Z</time>
      </trkpt>
      <trkpt lat="46.47524" lon="2.35047">
        <ele>309</ele>
        <time>2025-07-27T07:53:52.000Z</time>
      </trkpt>
      <trkpt lat="46.47507" lon="2.34991">
        <ele>304</ele>
        <time>2025-07-27T07:54:40.000Z</time>
      </trkpt>
      <trkpt lat="46.47484" lon="2.34936">
        <ele>299</ele>
        <time>2025-07-27T07:55:31.000Z</time>
      </trkpt>
      <trkpt lat="46.47456" lon="2.34897">
        <ele>294</ele>
        <time>2025-07-27T07:56:15.000Z</time>
      </trkpt>
      <trkpt lat="46.47433" lon="2.34871">
        <ele>292</ele>
        <time>2025-07-27T07:56:48.000Z</time>
      </trkpt>
      <trkpt lat="46.47406" lon="2.34851">
        <ele>291</ele>
        <time>2025-07-27T07:57:23.000Z</time>
      </trkpt>
      <trkpt lat="46.47375" lon="2.34848">
        <ele>292</ele>
        <time>2025-07-27T07:58:09.000Z</time>
      </trkpt>
      <trkpt lat="46.47351" lon="2.34848">
        <ele>290</ele>
        <time>2025-07-27T07:58:36.000Z</time>
      </trkpt>
      <trkpt lat="46.47343" lon="2.34851">
        <ele>290</ele>
        <time>2025-07-27T07:58:46.000Z</time>
      </trkpt>
      <trkpt lat="46.47341" lon="2.34849">
        <ele>289</ele>
        <time>2025-07-27T07:58:49.000Z</time>
      </trkpt>
      <trkpt lat="46.47329" lon="2.34928">
        <ele>294</ele>
        <time>2025-07-27T08:00:44.000Z</time>
      </trkpt>
      <trkpt lat="46.47293" lon="2.34934">
        <ele>291</ele>
        <time>2025-07-27T08:01:25.000Z</time>
      </trkpt>
      <trkpt lat="46.47278" lon="2.3492">
        <ele>294</ele>
        <time>2025-07-27T08:02:16.000Z</time>
      </trkpt>
      <trkpt lat="46.47226" lon="2.34786">
        <ele>304</ele>
        <time>2025-07-27T08:06:00.000Z</time>
      </trkpt>
      <trkpt lat="46.47173" lon="2.3468">
        <ele>313</ele>
        <time>2025-07-27T08:09:16.000Z</time>
      </trkpt>
      <trkpt lat="46.47095" lon="2.34552">
        <ele>322</ele>
        <time>2025-07-27T08:13:03.000Z</time>
      </trkpt>
      <trkpt lat="46.47044" lon="2.3443">
        <ele>326</ele>
        <time>2025-07-27T08:15:37.000Z</time>
      </trkpt>
      <trkpt lat="46.46996" lon="2.34325">
        <ele>325</ele>
        <time>2025-07-27T08:17:17.000Z</time>
      </trkpt>
      <trkpt lat="46.4685" lon="2.34134">
        <ele>323</ele>
        <time>2025-07-27T08:21:03.000Z</time>
      </trkpt>
      <trkpt lat="46.46861" lon="2.34117">
        <ele>323</ele>
        <time>2025-07-27T08:21:21.000Z</time>
      </trkpt>
      <trkpt lat="46.46846" lon="2.34076">
        <ele>323</ele>
        <time>2025-07-27T08:21:58.000Z</time>
      </trkpt>
      <trkpt lat="46.4683" lon="2.33991">
        <ele>324</ele>
        <time>2025-07-27T08:23:18.000Z</time>
      </trkpt>
      <trkpt lat="46.46761" lon="2.33832">
        <ele>327</ele>
        <time>2025-07-27T08:26:17.000Z</time>
      </trkpt>
      <trkpt lat="46.46734" lon="2.33768">
        <ele>329</ele>
        <time>2025-07-27T08:27:37.000Z</time>
      </trkpt>
      <trkpt lat="46.46701" lon="2.3368">
        <ele>331</ele>
        <time>2025-07-27T08:29:16.000Z</time>
      </trkpt>
      <trkpt lat="46.4668" lon="2.33591">
        <ele>331</ele>
        <time>2025-07-27T08:30:31.000Z</time>
      </trkpt>
      <trkpt lat="46.4668" lon="2.33514">
        <ele>331</ele>
        <time>2025-07-27T08:31:31.000Z</time>
      </trkpt>
      <trkpt lat="46.4668" lon="2.33484">
        <ele>329</ele>
        <time>2025-07-27T08:31:55.000Z</time>
      </trkpt>
      <trkpt lat="46.4667" lon="2.33454">
        <ele>327</ele>
        <time>2025-07-27T08:32:21.000Z</time>
      </trkpt>
      <trkpt lat="46.46651" lon="2.334">
        <ele>328</ele>
        <time>2025-07-27T08:33:19.000Z</time>
      </trkpt>
      <trkpt lat="46.46533" lon="2.32951">
        <ele>337</ele>
        <time>2025-07-27T08:41:11.000Z</time>
      </trkpt>
      <trkpt lat="46.46514" lon="2.32894">
        <ele>338</ele>
        <time>2025-07-27T08:42:11.000Z</time>
      </trkpt>
      <trkpt lat="46.46497" lon="2.3285">
        <ele>339</ele>
        <time>2025-07-27T08:43:01.000Z</time>
      </trkpt>
      <trkpt lat="46.46449" lon="2.3276">
        <ele>338</ele>
        <time>2025-07-27T08:44:30.000Z</time>
      </trkpt>
      <trkpt lat="46.4641" lon="2.32693">
        <ele>337</ele>
        <time>2025-07-27T08:45:39.000Z</time>
      </trkpt>
      <trkpt lat="46.46394" lon="2.32682">
        <ele>337</ele>
        <time>2025-07-27T08:45:59.000Z</time>
      </trkpt>
      <trkpt lat="46.4639" lon="2.32647">
        <ele>337</ele>
        <time>2025-07-27T08:46:27.000Z</time>
      </trkpt>
      <trkpt lat="46.46387" lon="2.32612">
        <ele>337</ele>
        <time>2025-07-27T08:46:55.000Z</time>
      </trkpt>
      <trkpt lat="46.46384" lon="2.32546">
        <ele>338</ele>
        <time>2025-07-27T08:47:57.000Z</time>
      </trkpt>
      <trkpt lat="46.46384" lon="2.32458">
        <ele>338</ele>
        <time>2025-07-27T08:49:07.000Z</time>
      </trkpt>
      <trkpt lat="46.46374" lon="2.32361">
        <ele>338</ele>
        <time>2025-07-27T08:50:25.000Z</time>
      </trkpt>
      <trkpt lat="46.46364" lon="2.32264">
        <ele>338</ele>
        <time>2025-07-27T08:51:42.000Z</time>
      </trkpt>
      <trkpt lat="46.46355" lon="2.32229">
        <ele>338</ele>
        <time>2025-07-27T08:52:11.000Z</time>
      </trkpt>
      <trkpt lat="46.46338" lon="2.32186">
        <ele>338</ele>
        <time>2025-07-27T08:52:50.000Z</time>
      </trkpt>
      <trkpt lat="46.46326" lon="2.32144">
        <ele>338</ele>
        <time>2025-07-27T08:53:25.000Z</time>
      </trkpt>
      <trkpt lat="46.4631" lon="2.32056">
        <ele>339</ele>
        <time>2025-07-27T08:54:47.000Z</time>
      </trkpt>
      <trkpt lat="46.46217" lon="2.31905">
        <ele>343</ele>
        <time>2025-07-27T08:58:08.000Z</time>
      </trkpt>
      <trkpt lat="46.46204" lon="2.31865">
        <ele>344</ele>
        <time>2025-07-27T08:58:53.000Z</time>
      </trkpt>
      <trkpt lat="46.46197" lon="2.31832">
        <ele>344</ele>
        <time>2025-07-27T08:59:20.000Z</time>
      </trkpt>
      <trkpt lat="46.46192" lon="2.31796">
        <ele>344</ele>
        <time>2025-07-27T08:59:49.000Z</time>
      </trkpt>
      <trkpt lat="46.46138" lon="2.31822">
        <ele>345</ele>
        <time>2025-07-27T09:01:04.000Z</time>
      </trkpt>
      <trkpt lat="46.46082" lon="2.31843">
        <ele>346</ele>
        <time>2025-07-27T09:02:20.000Z</time>
      </trkpt>
      <trkpt lat="46.45972" lon="2.31885">
        <ele>348</ele>
        <time>2025-07-27T09:04:52.000Z</time>
      </trkpt>
      <trkpt lat="46.459" lon="2.31906">
        <ele>350</ele>
        <time>2025-07-27T09:06:36.000Z</time>
      </trkpt>
      <trkpt lat="46.45877" lon="2.31917">
        <ele>351</ele>
        <time>2025-07-27T09:07:14.000Z</time>
      </trkpt>
      <trkpt lat="46.4576" lon="2.31949">
        <ele>354</ele>
        <time>2025-07-27T09:10:01.000Z</time>
      </trkpt>
      <trkpt lat="46.4565" lon="2.31975">
        <ele>357</ele>
        <time>2025-07-27T09:12:39.000Z</time>
      </trkpt>
      <trkpt lat="46.45549" lon="2.32005">
        <ele>360</ele>
        <time>2025-07-27T09:15:08.000Z</time>
      </trkpt>
      <trkpt lat="46.45499" lon="2.32014">
        <ele>362</ele>
        <time>2025-07-27T09:16:26.000Z</time>
      </trkpt>
      <trkpt lat="46.45382" lon="2.32005">
        <ele>365</ele>
        <time>2025-07-27T09:19:11.000Z</time>
      </trkpt>
      <trkpt lat="46.45302" lon="2.31987">
        <ele>368</ele>
        <time>2025-07-27T09:21:15.000Z</time>
      </trkpt>
      <trkpt lat="46.45271" lon="2.31984">
        <ele>369</ele>
        <time>2025-07-27T09:22:00.000Z</time>
      </trkpt>
      <trkpt lat="46.45237" lon="2.31988">
        <ele>370</ele>
        <time>2025-07-27T09:22:50.000Z</time>
      </trkpt>
      <trkpt lat="46.45158" lon="2.31977">
        <ele>372</ele>
        <time>2025-07-27T09:24:41.000Z</time>
      </trkpt>
      <trkpt lat="46.45146" lon="2.31983">
        <ele>373</ele>
        <time>2025-07-27T09:25:05.000Z</time>
      </trkpt>
      <trkpt lat="46.4508" lon="2.31944">
        <ele>374</ele>
        <time>2025-07-27T09:26:38.000Z</time>
      </trkpt>
      <trkpt lat="46.45051" lon="2.3193">
        <ele>374</ele>
        <time>2025-07-27T09:27:12.000Z</time>
      </trkpt>
      <trkpt lat="46.44997" lon="2.31918">
        <ele>375</ele>
        <time>2025-07-27T09:28:24.000Z</time>
      </trkpt>
      <trkpt lat="46.45003" lon="2.31971">
        <ele>375</ele>
        <time>2025-07-27T09:29:07.000Z</time>
      </trkpt>
      <trkpt lat="46.44924" lon="2.32004">
        <ele>376</ele>
        <time>2025-07-27T09:30:52.000Z</time>
      </trkpt>
      <trkpt lat="46.44868" lon="2.32038">
        <ele>375</ele>
        <time>2025-07-27T09:32:02.000Z</time>
      </trkpt>
      <trkpt lat="46.44774" lon="2.3211">
        <ele>373</ele>
        <time>2025-07-27T09:34:03.000Z</time>
      </trkpt>
      <trkpt lat="46.44673" lon="2.322">
        <ele>375</ele>
        <time>2025-07-27T09:36:39.000Z</time>
      </trkpt>
      <trkpt lat="46.44663" lon="2.32225">
        <ele>375</ele>
        <time>2025-07-27T09:37:02.000Z</time>
      </trkpt>
      <trkpt lat="46.44641" lon="2.32252">
        <ele>376</ele>
        <time>2025-07-27T09:37:45.000Z</time>
      </trkpt>
      <trkpt lat="46.44624" lon="2.32286">
        <ele>377</ele>
        <time>2025-07-27T09:38:29.000Z</time>
      </trkpt>
      <trkpt lat="46.44616" lon="2.32304">
        <ele>377</ele>
        <time>2025-07-27T09:38:46.000Z</time>
      </trkpt>
      <trkpt lat="46.44599" lon="2.32319">
        <ele>377</ele>
        <time>2025-07-27T09:39:09.000Z</time>
      </trkpt>
      <trkpt lat="46.44579" lon="2.32324">
        <ele>378</ele>
        <time>2025-07-27T09:39:42.000Z</time>
      </trkpt>
      <trkpt lat="46.4456" lon="2.32336">
        <ele>378</ele>
        <time>2025-07-27T09:40:05.000Z</time>
      </trkpt>
      <trkpt lat="46.44548" lon="2.32342">
        <ele>378</ele>
        <time>2025-07-27T09:40:20.000Z</time>
      </trkpt>
      <trkpt lat="46.44557" lon="2.32417">
        <ele>375</ele>
        <time>2025-07-27T09:41:20.000Z</time>
      </trkpt>
      <trkpt lat="46.44563" lon="2.32442">
        <ele>374</ele>
        <time>2025-07-27T09:41:41.000Z</time>
      </trkpt>
      <trkpt lat="46.44567" lon="2.3253">
        <ele>369</ele>
        <time>2025-07-27T09:42:51.000Z</time>
      </trkpt>
      <trkpt lat="46.44539" lon="2.32554">
        <ele>369</ele>
        <time>2025-07-27T09:43:27.000Z</time>
      </trkpt>
      <trkpt lat="46.44502" lon="2.32574">
        <ele>368</ele>
        <time>2025-07-27T09:44:13.000Z</time>
      </trkpt>
      <trkpt lat="46.44477" lon="2.32592">
        <ele>368</ele>
        <time>2025-07-27T09:44:45.000Z</time>
      </trkpt>
      <trkpt lat="46.44456" lon="2.32618">
        <ele>366</ele>
        <time>2025-07-27T09:45:17.000Z</time>
      </trkpt>
      <trkpt lat="46.44423" lon="2.3265">
        <ele>363</ele>
        <time>2025-07-27T09:46:02.000Z</time>
      </trkpt>
      <trkpt lat="46.44405" lon="2.32674">
        <ele>363</ele>
        <time>2025-07-27T09:46:30.000Z</time>
      </trkpt>
      <trkpt lat="46.44386" lon="2.32703">
        <ele>360</ele>
        <time>2025-07-27T09:47:01.000Z</time>
      </trkpt>
      <trkpt lat="46.44368" lon="2.32746">
        <ele>360</ele>
        <time>2025-07-27T09:47:41.000Z</time>
      </trkpt>
      <trkpt lat="46.44352" lon="2.32793">
        <ele>360</ele>
        <time>2025-07-27T09:48:22.000Z</time>
      </trkpt>
      <trkpt lat="46.44345" lon="2.32806">
        <ele>359</ele>
        <time>2025-07-27T09:48:36.000Z</time>
      </trkpt>
      <trkpt lat="46.44302" lon="2.32823">
        <ele>365</ele>
        <time>2025-07-27T09:50:28.000Z</time>
      </trkpt>
      <trkpt lat="46.44286" lon="2.32827">
        <ele>367</ele>
        <time>2025-07-27T09:51:07.000Z</time>
      </trkpt>
      <trkpt lat="46.4425" lon="2.32852">
        <ele>372</ele>
        <time>2025-07-27T09:52:44.000Z</time>
      </trkpt>
      <trkpt lat="46.44227" lon="2.3286">
        <ele>373</ele>
        <time>2025-07-27T09:53:21.000Z</time>
      </trkpt>
      <trkpt lat="46.44168" lon="2.32869">
        <ele>376</ele>
        <time>2025-07-27T09:55:00.000Z</time>
      </trkpt>
      <trkpt lat="46.44134" lon="2.32884">
        <ele>378</ele>
        <time>2025-07-27T09:56:01.000Z</time>
      </trkpt>
      <trkpt lat="46.44114" lon="2.32905">
        <ele>379</ele>
        <time>2025-07-27T09:56:40.000Z</time>
      </trkpt>
      <trkpt lat="46.44084" lon="2.32909">
        <ele>382</ele>
        <time>2025-07-27T09:57:45.000Z</time>
      </trkpt>
      <trkpt lat="46.44055" lon="2.32905">
        <ele>384</ele>
        <time>2025-07-27T09:58:40.000Z</time>
      </trkpt>
      <trkpt lat="46.44042" lon="2.32882">
        <ele>384</ele>
        <time>2025-07-27T09:59:04.000Z</time>
      </trkpt>
      <trkpt lat="46.44015" lon="2.32842">
        <ele>387</ele>
        <time>2025-07-27T10:00:19.000Z</time>
      </trkpt>
      <trkpt lat="46.43997" lon="2.32824">
        <ele>388</ele>
        <time>2025-07-27T10:00:54.000Z</time>
      </trkpt>
      <trkpt lat="46.43978" lon="2.3281">
        <ele>389</ele>
        <time>2025-07-27T10:01:29.000Z</time>
      </trkpt>
      <trkpt lat="46.43942" lon="2.32785">
        <ele>389</ele>
        <time>2025-07-27T10:02:14.000Z</time>
      </trkpt>
      <trkpt lat="46.43916" lon="2.3272">
        <ele>388</ele>
        <time>2025-07-27T10:03:14.000Z</time>
      </trkpt>
      <trkpt lat="46.43892" lon="2.32669">
        <ele>387</ele>
        <time>2025-07-27T10:04:02.000Z</time>
      </trkpt>
      <trkpt lat="46.43863" lon="2.3263">
        <ele>387</ele>
        <time>2025-07-27T10:04:47.000Z</time>
      </trkpt>
      <trkpt lat="46.43836" lon="2.32732">
        <ele>390</ele>
        <time>2025-07-27T10:06:44.000Z</time>
      </trkpt>
      <trkpt lat="46.43809" lon="2.32843">
        <ele>391</ele>
        <time>2025-07-27T10:08:27.000Z</time>
      </trkpt>
      <trkpt lat="46.43771" lon="2.32894">
        <ele>390</ele>
        <time>2025-07-27T10:09:26.000Z</time>
      </trkpt>
      <trkpt lat="46.4375" lon="2.32931">
        <ele>389</ele>
        <time>2025-07-27T10:10:04.000Z</time>
      </trkpt>
      <trkpt lat="46.43718" lon="2.3302">
        <ele>386</ele>
        <time>2025-07-27T10:11:24.000Z</time>
      </trkpt>
      <trkpt lat="46.43703" lon="2.3304">
        <ele>384</ele>
        <time>2025-07-27T10:11:47.000Z</time>
      </trkpt>
      <trkpt lat="46.43687" lon="2.33061">
        <ele>383</ele>
        <time>2025-07-27T10:12:12.000Z</time>
      </trkpt>
      <trkpt lat="46.43651" lon="2.33111">
        <ele>379</ele>
        <time>2025-07-27T10:13:09.000Z</time>
      </trkpt>
      <trkpt lat="46.43622" lon="2.33182">
        <ele>375</ele>
        <time>2025-07-27T10:14:14.000Z</time>
      </trkpt>
      <trkpt lat="46.43609" lon="2.33198">
        <ele>374</ele>
        <time>2025-07-27T10:14:34.000Z</time>
      </trkpt>
      <trkpt lat="46.43581" lon="2.33241">
        <ele>369</ele>
        <time>2025-07-27T10:15:20.000Z</time>
      </trkpt>
      <trkpt lat="46.43541" lon="2.333">
        <ele>365</ele>
        <time>2025-07-27T10:16:26.000Z</time>
      </trkpt>
      <trkpt lat="46.43519" lon="2.33342">
        <ele>365</ele>
        <time>2025-07-27T10:17:07.000Z</time>
      </trkpt>
      <trkpt lat="46.43487" lon="2.33405">
        <ele>363</ele>
        <time>2025-07-27T10:18:08.000Z</time>
      </trkpt>
      <trkpt lat="46.43462" lon="2.33433">
        <ele>361</ele>
        <time>2025-07-27T10:18:45.000Z</time>
      </trkpt>
      <trkpt lat="46.43445" lon="2.33449">
        <ele>359</ele>
        <time>2025-07-27T10:19:08.000Z</time>
      </trkpt>
      <trkpt lat="46.4341" lon="2.33509">
        <ele>353</ele>
        <time>2025-07-27T10:20:10.000Z</time>
      </trkpt>
      <trkpt lat="46.43391" lon="2.33533">
        <ele>351</ele>
        <time>2025-07-27T10:20:38.000Z</time>
      </trkpt>
      <trkpt lat="46.4338" lon="2.3355">
        <ele>349</ele>
        <time>2025-07-27T10:20:57.000Z</time>
      </trkpt>
      <trkpt lat="46.43361" lon="2.33616">
        <ele>346</ele>
        <time>2025-07-27T10:21:53.000Z</time>
      </trkpt>
      <trkpt lat="46.43337" lon="2.33667">
        <ele>343</ele>
        <time>2025-07-27T10:22:42.000Z</time>
      </trkpt>
      <trkpt lat="46.43318" lon="2.33718">
        <ele>339</ele>
        <time>2025-07-27T10:23:28.000Z</time>
      </trkpt>
      <trkpt lat="46.43318" lon="2.33741">
        <ele>338</ele>
        <time>2025-07-27T10:23:46.000Z</time>
      </trkpt>
      <trkpt lat="46.43322" lon="2.33785">
        <ele>334</ele>
        <time>2025-07-27T10:24:21.000Z</time>
      </trkpt>
      <trkpt lat="46.43318" lon="2.33914">
        <ele>325</ele>
        <time>2025-07-27T10:26:03.000Z</time>
      </trkpt>
      <trkpt lat="46.43325" lon="2.33945">
        <ele>324</ele>
        <time>2025-07-27T10:26:29.000Z</time>
      </trkpt>
      <trkpt lat="46.43338" lon="2.33979">
        <ele>323</ele>
        <time>2025-07-27T10:27:00.000Z</time>
      </trkpt>
      <trkpt lat="46.43332" lon="2.33984">
        <ele>323</ele>
        <time>2025-07-27T10:27:08.000Z</time>
      </trkpt>
      <trkpt lat="46.4333" lon="2.34029">
        <ele>322</ele>
        <time>2025-07-27T10:27:44.000Z</time>
      </trkpt>
      <trkpt lat="46.43325" lon="2.34052">
        <ele>322</ele>
        <time>2025-07-27T10:28:03.000Z</time>
      </trkpt>
      <trkpt lat="46.4331" lon="2.34072">
        <ele>325</ele>
        <time>2025-07-27T10:28:57.000Z</time>
      </trkpt>
      <trkpt lat="46.43307" lon="2.3408">
        <ele>327</ele>
        <time>2025-07-27T10:29:25.000Z</time>
      </trkpt>
      <trkpt lat="46.43334" lon="2.34132">
        <ele>333</ele>
        <time>2025-07-27T10:31:18.000Z</time>
      </trkpt>
      <trkpt lat="46.43364" lon="2.3418">
        <ele>339</ele>
        <time>2025-07-27T10:33:10.000Z</time>
      </trkpt>
      <trkpt lat="46.43381" lon="2.34225">
        <ele>342</ele>
        <time>2025-07-27T10:34:22.000Z</time>
      </trkpt>
      <trkpt lat="46.43387" lon="2.34266">
        <ele>345</ele>
        <time>2025-07-27T10:35:26.000Z</time>
      </trkpt>
      <trkpt lat="46.43397" lon="2.34342">
        <ele>348</ele>
        <time>2025-07-27T10:36:58.000Z</time>
      </trkpt>
      <trkpt lat="46.43398" lon="2.34406">
        <ele>350</ele>
        <time>2025-07-27T10:38:09.000Z</time>
      </trkpt>
      <trkpt lat="46.43397" lon="2.34436">
        <ele>351</ele>
        <time>2025-07-27T10:38:43.000Z</time>
      </trkpt>
      <trkpt lat="46.4336" lon="2.34564">
        <ele>355</ele>
        <time>2025-07-27T10:41:13.000Z</time>
      </trkpt>
      <trkpt lat="46.43346" lon="2.34593">
        <ele>355</ele>
        <time>2025-07-27T10:41:41.000Z</time>
      </trkpt>
      <trkpt lat="46.43296" lon="2.34654">
        <ele>358</ele>
        <time>2025-07-27T10:43:27.000Z</time>
      </trkpt>
      <trkpt lat="46.43286" lon="2.34706">
        <ele>360</ele>
        <time>2025-07-27T10:44:30.000Z</time>
      </trkpt>
      <trkpt lat="46.43307" lon="2.34758">
        <ele>356</ele>
        <time>2025-07-27T10:45:17.000Z</time>
      </trkpt>
      <trkpt lat="46.43324" lon="2.3484">
        <ele>352</ele>
        <time>2025-07-27T10:46:25.000Z</time>
      </trkpt>
      <trkpt lat="46.43328" lon="2.34862">
        <ele>350</ele>
        <time>2025-07-27T10:46:43.000Z</time>
      </trkpt>
      <trkpt lat="46.43337" lon="2.34879">
        <ele>349</ele>
        <time>2025-07-27T10:47:00.000Z</time>
      </trkpt>
      <trkpt lat="46.43364" lon="2.34911">
        <ele>344</ele>
        <time>2025-07-27T10:47:40.000Z</time>
      </trkpt>
      <trkpt lat="46.43369" lon="2.34915">
        <ele>343</ele>
        <time>2025-07-27T10:47:47.000Z</time>
      </trkpt>
      <trkpt lat="46.43379" lon="2.34962">
        <ele>340</ele>
        <time>2025-07-27T10:48:26.000Z</time>
      </trkpt>
      <trkpt lat="46.43381" lon="2.34999">
        <ele>340</ele>
        <time>2025-07-27T10:48:55.000Z</time>
      </trkpt>
      <trkpt lat="46.43376" lon="2.35048">
        <ele>342</ele>
        <time>2025-07-27T10:49:54.000Z</time>
      </trkpt>
      <trkpt lat="46.43377" lon="2.35086">
        <ele>346</ele>
        <time>2025-07-27T10:51:06.000Z</time>
      </trkpt>
      <trkpt lat="46.43378" lon="2.35156">
        <ele>352</ele>
        <time>2025-07-27T10:53:03.000Z</time>
      </trkpt>
      <trkpt lat="46.43368" lon="2.35262">
        <ele>362</ele>
        <time>2025-07-27T10:56:10.000Z</time>
      </trkpt>
      <trkpt lat="46.43362" lon="2.35356">
        <ele>368</ele>
        <time>2025-07-27T10:58:26.000Z</time>
      </trkpt>
      <trkpt lat="46.43353" lon="2.35451">
        <ele>374</ele>
        <time>2025-07-27T11:00:43.000Z</time>
      </trkpt>
      <trkpt lat="46.43349" lon="2.3547">
        <ele>376</ele>
        <time>2025-07-27T11:01:20.000Z</time>
      </trkpt>
      <trkpt lat="46.43335" lon="2.35485">
        <ele>377</ele>
        <time>2025-07-27T11:01:49.000Z</time>
      </trkpt>
      <trkpt lat="46.43323" lon="2.35505">
        <ele>377</ele>
        <time>2025-07-27T11:02:11.000Z</time>
      </trkpt>
      <trkpt lat="46.43316" lon="2.35528">
        <ele>378</ele>
        <time>2025-07-27T11:02:41.000Z</time>
      </trkpt>
      <trkpt lat="46.43312" lon="2.35587">
        <ele>382</ele>
        <time>2025-07-27T11:04:09.000Z</time>
      </trkpt>
      <trkpt lat="46.43314" lon="2.35617">
        <ele>385</ele>
        <time>2025-07-27T11:05:03.000Z</time>
      </trkpt>
      <trkpt lat="46.43318" lon="2.35644">
        <ele>388</ele>
        <time>2025-07-27T11:05:55.000Z</time>
      </trkpt>
      <trkpt lat="46.43316" lon="2.3567">
        <ele>389</ele>
        <time>2025-07-27T11:06:27.000Z</time>
      </trkpt>
      <trkpt lat="46.43321" lon="2.35696">
        <ele>390</ele>
        <time>2025-07-27T11:06:58.000Z</time>
      </trkpt>
      <trkpt lat="46.43338" lon="2.35735">
        <ele>391</ele>
        <time>2025-07-27T11:07:45.000Z</time>
      </trkpt>
      <trkpt lat="46.43359" lon="2.35851">
        <ele>395</ele>
        <time>2025-07-27T11:10:01.000Z</time>
      </trkpt>
      <trkpt lat="46.43367" lon="2.35865">
        <ele>395</ele>
        <time>2025-07-27T11:10:15.000Z</time>
      </trkpt>
      <trkpt lat="46.43368" lon="2.35888">
        <ele>396</ele>
        <time>2025-07-27T11:10:44.000Z</time>
      </trkpt>
      <trkpt lat="46.43365" lon="2.35909">
        <ele>397</ele>
        <time>2025-07-27T11:11:11.000Z</time>
      </trkpt>
      <trkpt lat="46.43338" lon="2.35972">
        <ele>400</ele>
        <time>2025-07-27T11:12:40.000Z</time>
      </trkpt>
      <trkpt lat="46.43325" lon="2.36">
        <ele>402</ele>
        <time>2025-07-27T11:13:27.000Z</time>
      </trkpt>
      <trkpt lat="46.43313" lon="2.36016">
        <ele>403</ele>
        <time>2025-07-27T11:13:57.000Z</time>
      </trkpt>
      <trkpt lat="46.43283" lon="2.36025">
        <ele>405</ele>
        <time>2025-07-27T11:14:52.000Z</time>
      </trkpt>
      <trkpt lat="46.43271" lon="2.36017">
        <ele>405</ele>
        <time>2025-07-27T11:15:07.000Z</time>
      </trkpt>
      <trkpt lat="46.43237" lon="2.36048">
        <ele>402</ele>
        <time>2025-07-27T11:15:53.000Z</time>
      </trkpt>
      <trkpt lat="46.43228" lon="2.36066">
        <ele>403</ele>
        <time>2025-07-27T11:16:21.000Z</time>
      </trkpt>
      <trkpt lat="46.43198" lon="2.36141">
        <ele>404</ele>
        <time>2025-07-27T11:17:40.000Z</time>
      </trkpt>
      <trkpt lat="46.43175" lon="2.36217">
        <ele>404</ele>
        <time>2025-07-27T11:18:45.000Z</time>
      </trkpt>
      <trkpt lat="46.4316" lon="2.36364">
        <ele>403</ele>
        <time>2025-07-27T11:20:42.000Z</time>
      </trkpt>
      <trkpt lat="46.43154" lon="2.36498">
        <ele>401</ele>
        <time>2025-07-27T11:22:28.000Z</time>
      </trkpt>
      <trkpt lat="46.43158" lon="2.36586">
        <ele>401</ele>
        <time>2025-07-27T11:23:37.000Z</time>
      </trkpt>
      <trkpt lat="46.43152" lon="2.36644">
        <ele>401</ele>
        <time>2025-07-27T11:24:24.000Z</time>
      </trkpt>
      <trkpt lat="46.43138" lon="2.36706">
        <ele>400</ele>
        <time>2025-07-27T11:25:16.000Z</time>
      </trkpt>
      <trkpt lat="46.43132" lon="2.36739">
        <ele>399</ele>
        <time>2025-07-27T11:25:42.000Z</time>
      </trkpt>
      <trkpt lat="46.43122" lon="2.36765">
        <ele>400</ele>
        <time>2025-07-27T11:26:16.000Z</time>
      </trkpt>
      <trkpt lat="46.43104" lon="2.36797">
        <ele>399</ele>
        <time>2025-07-27T11:26:49.000Z</time>
      </trkpt>
      <trkpt lat="46.43081" lon="2.36821">
        <ele>398</ele>
        <time>2025-07-27T11:27:21.000Z</time>
      </trkpt>
      <trkpt lat="46.43053" lon="2.3684">
        <ele>398</ele>
        <time>2025-07-27T11:27:57.000Z</time>
      </trkpt>
      <trkpt lat="46.42993" lon="2.36875">
        <ele>400</ele>
        <time>2025-07-27T11:29:31.000Z</time>
      </trkpt>
      <trkpt lat="46.42974" lon="2.36891">
        <ele>400</ele>
        <time>2025-07-27T11:29:56.000Z</time>
      </trkpt>
      <trkpt lat="46.42959" lon="2.36916">
        <ele>399</ele>
        <time>2025-07-27T11:30:22.000Z</time>
      </trkpt>
      <trkpt lat="46.42952" lon="2.36941">
        <ele>399</ele>
        <time>2025-07-27T11:30:43.000Z</time>
      </trkpt>
      <trkpt lat="46.42934" lon="2.36972">
        <ele>400</ele>
        <time>2025-07-27T11:31:26.000Z</time>
      </trkpt>
      <trkpt lat="46.42913" lon="2.36995">
        <ele>400</ele>
        <time>2025-07-27T11:31:55.000Z</time>
      </trkpt>
      <trkpt lat="46.42746" lon="2.37118">
        <ele>405</ele>
        <time>2025-07-27T11:36:21.000Z</time>
      </trkpt>
      <trkpt lat="46.42728" lon="2.3713">
        <ele>405</ele>
        <time>2025-07-27T11:36:44.000Z</time>
      </trkpt>
      <trkpt lat="46.42712" lon="2.37134">
        <ele>405</ele>
        <time>2025-07-27T11:37:02.000Z</time>
      </trkpt>
      <trkpt lat="46.42684" lon="2.37116">
        <ele>406</ele>
        <time>2025-07-27T11:37:48.000Z</time>
      </trkpt>
      <trkpt lat="46.4259" lon="2.37078">
        <ele>406</ele>
        <time>2025-07-27T11:39:39.000Z</time>
      </trkpt>
      <trkpt lat="46.42569" lon="2.37081">
        <ele>406</ele>
        <time>2025-07-27T11:40:03.000Z</time>
      </trkpt>
      <trkpt lat="46.42535" lon="2.37084">
        <ele>407</ele>
        <time>2025-07-27T11:40:53.000Z</time>
      </trkpt>
      <trkpt lat="46.42519" lon="2.37088">
        <ele>407</ele>
        <time>2025-07-27T11:41:12.000Z</time>
      </trkpt>
      <trkpt lat="46.42436" lon="2.37189">
        <ele>409</ele>
        <time>2025-07-27T11:43:37.000Z</time>
      </trkpt>
      <trkpt lat="46.42416" lon="2.37218">
        <ele>409</ele>
        <time>2025-07-27T11:44:09.000Z</time>
      </trkpt>
      <trkpt lat="46.42399" lon="2.37229">
        <ele>410</ele>
        <time>2025-07-27T11:44:40.000Z</time>
      </trkpt>
      <trkpt lat="46.42278" lon="2.37273">
        <ele>414</ele>
        <time>2025-07-27T11:47:45.000Z</time>
      </trkpt>
      <trkpt lat="46.42146" lon="2.37325">
        <ele>421</ele>
        <time>2025-07-27T11:51:33.000Z</time>
      </trkpt>
      <trkpt lat="46.42019" lon="2.37388">
        <ele>420</ele>
        <time>2025-07-27T11:54:07.000Z</time>
      </trkpt>
      <trkpt lat="46.41921" lon="2.37446">
        <ele>423</ele>
        <time>2025-07-27T11:56:39.000Z</time>
      </trkpt>
      <trkpt lat="46.41831" lon="2.37505">
        <ele>427</ele>
        <time>2025-07-27T11:59:14.000Z</time>
      </trkpt>
      <trkpt lat="46.41745" lon="2.37584">
        <ele>430</ele>
        <time>2025-07-27T12:01:41.000Z</time>
      </trkpt>
      <trkpt lat="46.41721" lon="2.37609">
        <ele>430</ele>
        <time>2025-07-27T12:02:15.000Z</time>
      </trkpt>
      <trkpt lat="46.41629" lon="2.37624">
        <ele>432</ele>
        <time>2025-07-27T12:04:21.000Z</time>
      </trkpt>
      <trkpt lat="46.41616" lon="2.37623">
        <ele>433</ele>
        <time>2025-07-27T12:04:47.000Z</time>
      </trkpt>
      <trkpt lat="46.41609" lon="2.37637">
        <ele>433</ele>
        <time>2025-07-27T12:05:01.000Z</time>
      </trkpt>
      <trkpt lat="46.41574" lon="2.37667">
        <ele>433</ele>
        <time>2025-07-27T12:05:47.000Z</time>
      </trkpt>
      <trkpt lat="46.41573" lon="2.37681">
        <ele>433</ele>
        <time>2025-07-27T12:05:58.000Z</time>
      </trkpt>
      <trkpt lat="46.41599" lon="2.37733">
        <ele>433</ele>
        <time>2025-07-27T12:06:49.000Z</time>
      </trkpt>
      <trkpt lat="46.4163" lon="2.37781">
        <ele>433</ele>
        <time>2025-07-27T12:07:41.000Z</time>
      </trkpt>
      <trkpt lat="46.41657" lon="2.37814">
        <ele>432</ele>
        <time>2025-07-27T12:08:21.000Z</time>
      </trkpt>
      <trkpt lat="46.41751" lon="2.37898">
        <ele>432</ele>
        <time>2025-07-27T12:10:28.000Z</time>
      </trkpt>
      <trkpt lat="46.41783" lon="2.37915">
        <ele>432</ele>
        <time>2025-07-27T12:11:07.000Z</time>
      </trkpt>
      <trkpt lat="46.41796" lon="2.37939">
        <ele>431</ele>
        <time>2025-07-27T12:11:31.000Z</time>
      </trkpt>
      <trkpt lat="46.4191" lon="2.38207">
        <ele>426</ele>
        <time>2025-07-27T12:15:40.000Z</time>
      </trkpt>
      <trkpt lat="46.42018" lon="2.38475">
        <ele>421</ele>
        <time>2025-07-27T12:19:45.000Z</time>
      </trkpt>
      <trkpt lat="46.42122" lon="2.38741">
        <ele>416</ele>
        <time>2025-07-27T12:23:47.000Z</time>
      </trkpt>
      <trkpt lat="46.42174" lon="2.38871">
        <ele>413</ele>
        <time>2025-07-27T12:25:46.000Z</time>
      </trkpt>
      <trkpt lat="46.4223" lon="2.39002">
        <ele>410</ele>
        <time>2025-07-27T12:27:47.000Z</time>
      </trkpt>
      <trkpt lat="46.42228" lon="2.39019">
        <ele>410</ele>
        <time>2025-07-27T12:28:00.000Z</time>
      </trkpt>
      <trkpt lat="46.42262" lon="2.39253">
        <ele>411</ele>
        <time>2025-07-27T12:31:19.000Z</time>
      </trkpt>
      <trkpt lat="46.42285" lon="2.39383">
        <ele>414</ele>
        <time>2025-07-27T12:33:36.000Z</time>
      </trkpt>
      <trkpt lat="46.42289" lon="2.39436">
        <ele>415</ele>
        <time>2025-07-27T12:34:28.000Z</time>
      </trkpt>
      <trkpt lat="46.42289" lon="2.39465">
        <ele>415</ele>
        <time>2025-07-27T12:34:51.000Z</time>
      </trkpt>
      <trkpt lat="46.42281" lon="2.39495">
        <ele>416</ele>
        <time>2025-07-27T12:35:27.000Z</time>
      </trkpt>
      <trkpt lat="46.42203" lon="2.39671">
        <ele>420</ele>
        <time>2025-07-27T12:38:53.000Z</time>
      </trkpt>
      <trkpt lat="46.42178" lon="2.39666">
        <ele>420</ele>
        <time>2025-07-27T12:39:22.000Z</time>
      </trkpt>
      <trkpt lat="46.42063" lon="2.39659">
        <ele>424</ele>
        <time>2025-07-27T12:42:15.000Z</time>
      </trkpt>
      <trkpt lat="46.41916" lon="2.39679">
        <ele>424</ele>
        <time>2025-07-27T12:45:03.000Z</time>
      </trkpt>
      <trkpt lat="46.41832" lon="2.39611">
        <ele>421</ele>
        <time>2025-07-27T12:46:53.000Z</time>
      </trkpt>
      <trkpt lat="46.41742" lon="2.39543">
        <ele>416</ele>
        <time>2025-07-27T12:48:50.000Z</time>
      </trkpt>
      <trkpt lat="46.41731" lon="2.39538">
        <ele>415</ele>
        <time>2025-07-27T12:49:03.000Z</time>
      </trkpt>
      <trkpt lat="46.41718" lon="2.39537">
        <ele>414</ele>
        <time>2025-07-27T12:49:18.000Z</time>
      </trkpt>
      <trkpt lat="46.41645" lon="2.39556">
        <ele>410</ele>
        <time>2025-07-27T12:50:43.000Z</time>
      </trkpt>
      <trkpt lat="46.41565" lon="2.39592">
        <ele>404</ele>
        <time>2025-07-27T12:52:19.000Z</time>
      </trkpt>
      <trkpt lat="46.41483" lon="2.39634">
        <ele>397</ele>
        <time>2025-07-27T12:53:59.000Z</time>
      </trkpt>
      <trkpt lat="46.41301" lon="2.39722">
        <ele>383</ele>
        <time>2025-07-27T12:57:39.000Z</time>
      </trkpt>
      <trkpt lat="46.41311" lon="2.39738">
        <ele>384</ele>
        <time>2025-07-27T12:58:07.000Z</time>
      </trkpt>
      <trkpt lat="46.41391" lon="2.3996">
        <ele>390</ele>
        <time>2025-07-27T13:02:27.000Z</time>
      </trkpt>
      <trkpt lat="46.41415" lon="2.4">
        <ele>391</ele>
        <time>2025-07-27T13:03:18.000Z</time>
      </trkpt>
      <trkpt lat="46.41394" lon="2.40157">
        <ele>387</ele>
        <time>2025-07-27T13:05:24.000Z</time>
      </trkpt>
      <trkpt lat="46.4139" lon="2.40181">
        <ele>387</ele>
        <time>2025-07-27T13:05:44.000Z</time>
      </trkpt>
      <trkpt lat="46.41388" lon="2.40208">
        <ele>387</ele>
        <time>2025-07-27T13:06:05.000Z</time>
      </trkpt>
      <trkpt lat="46.41385" lon="2.40241">
        <ele>386</ele>
        <time>2025-07-27T13:06:32.000Z</time>
      </trkpt>
      <trkpt lat="46.41369" lon="2.40279">
        <ele>386</ele>
        <time>2025-07-27T13:07:07.000Z</time>
      </trkpt>
      <trkpt lat="46.41345" lon="2.40356">
        <ele>384</ele>
        <time>2025-07-27T13:08:14.000Z</time>
      </trkpt>
      <trkpt lat="46.41342" lon="2.4037">
        <ele>384</ele>
        <time>2025-07-27T13:08:25.000Z</time>
      </trkpt>
      <trkpt lat="46.41331" lon="2.40394">
        <ele>382</ele>
        <time>2025-07-27T13:08:48.000Z</time>
      </trkpt>
      <trkpt lat="46.41307" lon="2.40422">
        <ele>380</ele>
        <time>2025-07-27T13:09:23.000Z</time>
      </trkpt>
      <trkpt lat="46.41255" lon="2.40468">
        <ele>378</ele>
        <time>2025-07-27T13:10:33.000Z</time>
      </trkpt>
      <trkpt lat="46.4122" lon="2.40516">
        <ele>375</ele>
        <time>2025-07-27T13:11:28.000Z</time>
      </trkpt>
      <trkpt lat="46.41207" lon="2.40539">
        <ele>374</ele>
        <time>2025-07-27T13:11:51.000Z</time>
      </trkpt>
      <trkpt lat="46.41203" lon="2.4056">
        <ele>374</ele>
        <time>2025-07-27T13:12:08.000Z</time>
      </trkpt>
      <trkpt lat="46.41197" lon="2.40621">
        <ele>373</ele>
        <time>2025-07-27T13:12:57.000Z</time>
      </trkpt>
      <trkpt lat="46.41183" lon="2.40682">
        <ele>372</ele>
        <time>2025-07-27T13:13:48.000Z</time>
      </trkpt>
      <trkpt lat="46.41188" lon="2.40724">
        <ele>372</ele>
        <time>2025-07-27T13:14:21.000Z</time>
      </trkpt>
      <trkpt lat="46.41197" lon="2.40769">
        <ele>372</ele>
        <time>2025-07-27T13:14:58.000Z</time>
      </trkpt>
      <trkpt lat="46.41203" lon="2.40844">
        <ele>373</ele>
        <time>2025-07-27T13:16:08.000Z</time>
      </trkpt>
      <trkpt lat="46.41201" lon="2.40858">
        <ele>373</ele>
        <time>2025-07-27T13:16:20.000Z</time>
      </trkpt>
      <trkpt lat="46.41181" lon="2.40903">
        <ele>374</ele>
        <time>2025-07-27T13:17:13.000Z</time>
      </trkpt>
      <trkpt lat="46.41161" lon="2.40944">
        <ele>376</ele>
        <time>2025-07-27T13:18:13.000Z</time>
      </trkpt>
      <trkpt lat="46.41156" lon="2.40975">
        <ele>377</ele>
        <time>2025-07-27T13:18:48.000Z</time>
      </trkpt>
      <trkpt lat="46.41156" lon="2.41008">
        <ele>377</ele>
        <time>2025-07-27T13:19:14.000Z</time>
      </trkpt>
      <trkpt lat="46.4116" lon="2.41047">
        <ele>377</ele>
        <time>2025-07-27T13:19:45.000Z</time>
      </trkpt>
      <trkpt lat="46.41169" lon="2.41092">
        <ele>378</ele>
        <time>2025-07-27T13:20:32.000Z</time>
      </trkpt>
      <trkpt lat="46.41172" lon="2.41128">
        <ele>378</ele>
        <time>2025-07-27T13:21:01.000Z</time>
      </trkpt>
      <trkpt lat="46.4118" lon="2.41156">
        <ele>378</ele>
        <time>2025-07-27T13:21:25.000Z</time>
      </trkpt>
      <trkpt lat="46.41202" lon="2.41206">
        <ele>379</ele>
        <time>2025-07-27T13:22:22.000Z</time>
      </trkpt>
      <trkpt lat="46.4122" lon="2.41231">
        <ele>379</ele>
        <time>2025-07-27T13:22:50.000Z</time>
      </trkpt>
      <trkpt lat="46.4124" lon="2.41264">
        <ele>379</ele>
        <time>2025-07-27T13:23:25.000Z</time>
      </trkpt>
      <trkpt lat="46.41259" lon="2.41339">
        <ele>380</ele>
        <time>2025-07-27T13:24:39.000Z</time>
      </trkpt>
      <trkpt lat="46.41149" lon="2.41427">
        <ele>376</ele>
        <time>2025-07-27T13:27:03.000Z</time>
      </trkpt>
      <trkpt lat="46.41042" lon="2.41513">
        <ele>370</ele>
        <time>2025-07-27T13:29:23.000Z</time>
      </trkpt>
      <trkpt lat="46.41035" lon="2.41538">
        <ele>369</ele>
        <time>2025-07-27T13:29:44.000Z</time>
      </trkpt>
      <trkpt lat="46.41037" lon="2.41557">
        <ele>370</ele>
        <time>2025-07-27T13:30:10.000Z</time>
      </trkpt>
      <trkpt lat="46.41039" lon="2.41596">
        <ele>370</ele>
        <time>2025-07-27T13:30:41.000Z</time>
      </trkpt>
      <trkpt lat="46.41031" lon="2.41619">
        <ele>368</ele>
        <time>2025-07-27T13:31:01.000Z</time>
      </trkpt>
      <trkpt lat="46.4101" lon="2.41713">
        <ele>361</ele>
        <time>2025-07-27T13:32:20.000Z</time>
      </trkpt>
      <trkpt lat="46.41018" lon="2.41744">
        <ele>361</ele>
        <time>2025-07-27T13:32:46.000Z</time>
      </trkpt>
      <trkpt lat="46.41012" lon="2.41781">
        <ele>360</ele>
        <time>2025-07-27T13:33:16.000Z</time>
      </trkpt>
      <trkpt lat="46.40999" lon="2.41818">
        <ele>361</ele>
        <time>2025-07-27T13:33:59.000Z</time>
      </trkpt>
      <trkpt lat="46.40992" lon="2.41861">
        <ele>363</ele>
        <time>2025-07-27T13:34:55.000Z</time>
      </trkpt>
      <trkpt lat="46.40986" lon="2.41933">
        <ele>367</ele>
        <time>2025-07-27T13:36:34.000Z</time>
      </trkpt>
      <trkpt lat="46.40986" lon="2.4201">
        <ele>369</ele>
        <time>2025-07-27T13:37:55.000Z</time>
      </trkpt>
      <trkpt lat="46.40971" lon="2.42092">
        <ele>371</ele>
        <time>2025-07-27T13:39:22.000Z</time>
      </trkpt>
      <trkpt lat="46.40948" lon="2.42161">
        <ele>374</ele>
        <time>2025-07-27T13:40:54.000Z</time>
      </trkpt>
      <trkpt lat="46.40944" lon="2.42197">
        <ele>375</ele>
        <time>2025-07-27T13:41:33.000Z</time>
      </trkpt>
      <trkpt lat="46.40941" lon="2.4229">
        <ele>377</ele>
        <time>2025-07-27T13:43:07.000Z</time>
      </trkpt>
      <trkpt lat="46.40948" lon="2.4237">
        <ele>377</ele>
        <time>2025-07-27T13:44:11.000Z</time>
      </trkpt>
      <trkpt lat="46.40974" lon="2.42488">
        <ele>376</ele>
        <time>2025-07-27T13:45:49.000Z</time>
      </trkpt>
      <trkpt lat="46.41011" lon="2.42653">
        <ele>374</ele>
        <time>2025-07-27T13:48:06.000Z</time>
      </trkpt>
      <trkpt lat="46.41066" lon="2.42595">
        <ele>376</ele>
        <time>2025-07-27T13:49:44.000Z</time>
      </trkpt>
      <trkpt lat="46.41083" lon="2.42586">
        <ele>376</ele>
        <time>2025-07-27T13:50:05.000Z</time>
      </trkpt>
      <trkpt lat="46.41109" lon="2.42769">
        <ele>375</ele>
        <time>2025-07-27T13:52:32.000Z</time>
      </trkpt>
      <trkpt lat="46.41132" lon="2.42951">
        <ele>372</ele>
        <time>2025-07-27T13:54:58.000Z</time>
      </trkpt>
      <trkpt lat="46.41136" lon="2.42974">
        <ele>372</ele>
        <time>2025-07-27T13:55:16.000Z</time>
      </trkpt>
      <trkpt lat="46.41149" lon="2.43093">
        <ele>370</ele>
        <time>2025-07-27T13:56:51.000Z</time>
      </trkpt>
      <trkpt lat="46.41203" lon="2.43252">
        <ele>367</ele>
        <time>2025-07-27T13:59:11.000Z</time>
      </trkpt>
      <trkpt lat="46.41224" lon="2.43331">
        <ele>366</ele>
        <time>2025-07-27T14:00:18.000Z</time>
      </trkpt>
      <trkpt lat="46.41245" lon="2.43427">
        <ele>365</ele>
        <time>2025-07-27T14:01:38.000Z</time>
      </trkpt>
      <trkpt lat="46.41263" lon="2.43484">
        <ele>365</ele>
        <time>2025-07-27T14:02:27.000Z</time>
      </trkpt>
      <trkpt lat="46.41292" lon="2.43541">
        <ele>364</ele>
        <time>2025-07-27T14:03:23.000Z</time>
      </trkpt>
      <trkpt lat="46.41321" lon="2.43582">
        <ele>364</ele>
        <time>2025-07-27T14:04:10.000Z</time>
      </trkpt>
      <trkpt lat="46.4136" lon="2.43663">
        <ele>362</ele>
        <time>2025-07-27T14:05:28.000Z</time>
      </trkpt>
      <trkpt lat="46.41404" lon="2.43777">
        <ele>360</ele>
        <time>2025-07-27T14:07:11.000Z</time>
      </trkpt>
      <trkpt lat="46.4144" lon="2.4389">
        <ele>358</ele>
        <time>2025-07-27T14:08:50.000Z</time>
      </trkpt>
      <trkpt lat="46.41437" lon="2.43954">
        <ele>358</ele>
        <time>2025-07-27T14:09:41.000Z</time>
      </trkpt>
      <trkpt lat="46.41438" lon="2.44018">
        <ele>358</ele>
        <time>2025-07-27T14:10:31.000Z</time>
      </trkpt>
      <trkpt lat="46.41426" lon="2.44106">
        <ele>358</ele>
        <time>2025-07-27T14:11:42.000Z</time>
      </trkpt>
      <trkpt lat="46.41323" lon="2.4411">
        <ele>360</ele>
        <time>2025-07-27T14:14:00.000Z</time>
      </trkpt>
      <trkpt lat="46.41323" lon="2.4412">
        <ele>360</ele>
        <time>2025-07-27T14:14:08.000Z</time>
      </trkpt>
      <trkpt lat="46.41306" lon="2.44192">
        <ele>358</ele>
        <time>2025-07-27T14:15:08.000Z</time>
      </trkpt>
      <trkpt lat="46.41288" lon="2.44262">
        <ele>358</ele>
        <time>2025-07-27T14:16:07.000Z</time>
      </trkpt>
      <trkpt lat="46.41264" lon="2.44301">
        <ele>357</ele>
        <time>2025-07-27T14:16:49.000Z</time>
      </trkpt>
      <trkpt lat="46.41232" lon="2.44353">
        <ele>355</ele>
        <time>2025-07-27T14:17:43.000Z</time>
      </trkpt>
      <trkpt lat="46.41172" lon="2.44435">
        <ele>353</ele>
        <time>2025-07-27T14:19:18.000Z</time>
      </trkpt>
      <trkpt lat="46.41146" lon="2.44514">
        <ele>351</ele>
        <time>2025-07-27T14:20:27.000Z</time>
      </trkpt>
      <trkpt lat="46.41119" lon="2.44587">
        <ele>348</ele>
        <time>2025-07-27T14:21:32.000Z</time>
      </trkpt>
      <trkpt lat="46.41081" lon="2.44668">
        <ele>345</ele>
        <time>2025-07-27T14:22:50.000Z</time>
      </trkpt>
      <trkpt lat="46.41067" lon="2.44683">
        <ele>344</ele>
        <time>2025-07-27T14:23:10.000Z</time>
      </trkpt>
      <trkpt lat="46.41032" lon="2.44776">
        <ele>341</ele>
        <time>2025-07-27T14:24:34.000Z</time>
      </trkpt>
      <trkpt lat="46.41003" lon="2.44877">
        <ele>340</ele>
        <time>2025-07-27T14:26:00.000Z</time>
      </trkpt>
      <trkpt lat="46.41003" lon="2.44911">
        <ele>340</ele>
        <time>2025-07-27T14:26:27.000Z</time>
      </trkpt>
      <trkpt lat="46.41008" lon="2.4495">
        <ele>339</ele>
        <time>2025-07-27T14:26:58.000Z</time>
      </trkpt>
      <trkpt lat="46.40958" lon="2.44988">
        <ele>337</ele>
        <time>2025-07-27T14:28:03.000Z</time>
      </trkpt>
      <trkpt lat="46.40956" lon="2.44998">
        <ele>337</ele>
        <time>2025-07-27T14:28:11.000Z</time>
      </trkpt>
      <trkpt lat="46.40872" lon="2.4505">
        <ele>334</ele>
        <time>2025-07-27T14:29:55.000Z</time>
      </trkpt>
      <trkpt lat="46.40845" lon="2.45061">
        <ele>333</ele>
        <time>2025-07-27T14:30:28.000Z</time>
      </trkpt>
      <trkpt lat="46.4083" lon="2.45067">
        <ele>332</ele>
        <time>2025-07-27T14:30:45.000Z</time>
      </trkpt>
      <trkpt lat="46.40815" lon="2.45066">
        <ele>332</ele>
        <time>2025-07-27T14:31:02.000Z</time>
      </trkpt>
      <trkpt lat="46.40802" lon="2.4506">
        <ele>332</ele>
        <time>2025-07-27T14:31:18.000Z</time>
      </trkpt>
      <trkpt lat="46.40764" lon="2.45059">
        <ele>330</ele>
        <time>2025-07-27T14:32:01.000Z</time>
      </trkpt>
      <trkpt lat="46.40718" lon="2.45066">
        <ele>325</ele>
        <time>2025-07-27T14:32:54.000Z</time>
      </trkpt>
      <trkpt lat="46.407" lon="2.4508">
        <ele>324</ele>
        <time>2025-07-27T14:33:17.000Z</time>
      </trkpt>
      <trkpt lat="46.40685" lon="2.45095">
        <ele>324</ele>
        <time>2025-07-27T14:33:38.000Z</time>
      </trkpt>
      <trkpt lat="46.40668" lon="2.4511">
        <ele>324</ele>
        <time>2025-07-27T14:34:01.000Z</time>
      </trkpt>
      <trkpt lat="46.40591" lon="2.4512">
        <ele>323</ele>
        <time>2025-07-27T14:35:29.000Z</time>
      </trkpt>
      <trkpt lat="46.40583" lon="2.45125">
        <ele>323</ele>
        <time>2025-07-27T14:35:40.000Z</time>
      </trkpt>
      <trkpt lat="46.40573" lon="2.45138">
        <ele>323</ele>
        <time>2025-07-27T14:35:55.000Z</time>
      </trkpt>
      <trkpt lat="46.40555" lon="2.45193">
        <ele>319</ele>
        <time>2025-07-27T14:36:44.000Z</time>
      </trkpt>
      <trkpt lat="46.40543" lon="2.45232">
        <ele>313</ele>
        <time>2025-07-27T14:37:17.000Z</time>
      </trkpt>
      <trkpt lat="46.40541" lon="2.45248">
        <ele>310</ele>
        <time>2025-07-27T14:37:30.000Z</time>
      </trkpt>
      <trkpt lat="46.40533" lon="2.45259">
        <ele>307</ele>
        <time>2025-07-27T14:37:43.000Z</time>
      </trkpt>
      <trkpt lat="46.40523" lon="2.4525">
        <ele>306</ele>
        <time>2025-07-27T14:37:56.000Z</time>
      </trkpt>
      <trkpt lat="46.40495" lon="2.45194">
        <ele>302</ele>
        <time>2025-07-27T14:38:51.000Z</time>
      </trkpt>
      <trkpt lat="46.40458" lon="2.45216">
        <ele>292</ele>
        <time>2025-07-27T14:39:38.000Z</time>
      </trkpt>
      <trkpt lat="46.40447" lon="2.45228">
        <ele>292</ele>
        <time>2025-07-27T14:39:53.000Z</time>
      </trkpt>
      <trkpt lat="46.40438" lon="2.45219">
        <ele>295</ele>
        <time>2025-07-27T14:40:37.000Z</time>
      </trkpt>
      <trkpt lat="46.40429" lon="2.45187">
        <ele>296</ele>
        <time>2025-07-27T14:41:14.000Z</time>
      </trkpt>
      <trkpt lat="46.40422" lon="2.45187">
        <ele>299</ele>
        <time>2025-07-27T14:41:53.000Z</time>
      </trkpt>
      <trkpt lat="46.40414" lon="2.452">
        <ele>302</ele>
        <time>2025-07-27T14:42:37.000Z</time>
      </trkpt>
      <trkpt lat="46.40412" lon="2.45208">
        <ele>302</ele>
        <time>2025-07-27T14:42:44.000Z</time>
      </trkpt>
      <trkpt lat="46.40403" lon="2.45235">
        <ele>302</ele>
        <time>2025-07-27T14:43:07.000Z</time>
      </trkpt>
      <trkpt lat="46.40395" lon="2.45238">
        <ele>303</ele>
        <time>2025-07-27T14:43:27.000Z</time>
      </trkpt>
      <trkpt lat="46.40383" lon="2.45249">
        <ele>305</ele>
        <time>2025-07-27T14:44:04.000Z</time>
      </trkpt>
      <trkpt lat="46.40368" lon="2.45253">
        <ele>308</ele>
        <time>2025-07-27T14:44:52.000Z</time>
      </trkpt>
      <trkpt lat="46.40347" lon="2.45253">
        <ele>312</ele>
        <time>2025-07-27T14:45:57.000Z</time>
      </trkpt>
      <trkpt lat="46.40326" lon="2.45242">
        <ele>315</ele>
        <time>2025-07-27T14:46:54.000Z</time>
      </trkpt>
      <trkpt lat="46.40307" lon="2.45227">
        <ele>318</ele>
        <time>2025-07-27T14:47:50.000Z</time>
      </trkpt>
      <trkpt lat="46.40276" lon="2.45213">
        <ele>320</ele>
        <time>2025-07-27T14:48:48.000Z</time>
      </trkpt>
      <trkpt lat="46.40258" lon="2.45212">
        <ele>323</ele>
        <time>2025-07-27T14:49:39.000Z</time>
      </trkpt>
      <trkpt lat="46.40242" lon="2.45214">
        <ele>325</ele>
        <time>2025-07-27T14:50:18.000Z</time>
      </trkpt>
      <trkpt lat="46.40223" lon="2.45224">
        <ele>328</ele>
        <time>2025-07-27T14:51:12.000Z</time>
      </trkpt>
      <trkpt lat="46.40103" lon="2.45299">
        <ele>337</ele>
        <time>2025-07-27T14:55:14.000Z</time>
      </trkpt>
      <trkpt lat="46.40088" lon="2.45311">
        <ele>339</ele>
        <time>2025-07-27T14:55:55.000Z</time>
      </trkpt>
      <trkpt lat="46.40035" lon="2.45318">
        <ele>342</ele>
        <time>2025-07-27T14:57:27.000Z</time>
      </trkpt>
      <trkpt lat="46.40018" lon="2.45328">
        <ele>342</ele>
        <time>2025-07-27T14:57:47.000Z</time>
      </trkpt>
      <trkpt lat="46.39999" lon="2.45351">
        <ele>342</ele>
        <time>2025-07-27T14:58:16.000Z</time>
      </trkpt>
      <trkpt lat="46.39991" lon="2.45348">
        <ele>342</ele>
        <time>2025-07-27T14:58:25.000Z</time>
      </trkpt>
      <trkpt lat="46.39983" lon="2.45317">
        <ele>343</ele>
        <time>2025-07-27T14:59:01.000Z</time>
      </trkpt>
      <trkpt lat="46.39958" lon="2.45306">
        <ele>345</ele>
        <time>2025-07-27T14:59:52.000Z</time>
      </trkpt>
      <trkpt lat="46.39938" lon="2.45305">
        <ele>346</ele>
        <time>2025-07-27T15:00:25.000Z</time>
      </trkpt>
      <trkpt lat="46.39845" lon="2.45315">
        <ele>349</ele>
        <time>2025-07-27T15:02:43.000Z</time>
      </trkpt>
      <trkpt lat="46.39834" lon="2.45315">
        <ele>350</ele>
        <time>2025-07-27T15:03:05.000Z</time>
      </trkpt>
      <trkpt lat="46.39799" lon="2.45295">
        <ele>351</ele>
        <time>2025-07-27T15:03:58.000Z</time>
      </trkpt>
      <trkpt lat="46.3975" lon="2.45266">
        <ele>352</ele>
        <time>2025-07-27T15:05:10.000Z</time>
      </trkpt>
      <trkpt lat="46.39658" lon="2.45204">
        <ele>354</ele>
        <time>2025-07-27T15:07:27.000Z</time>
      </trkpt>
      <trkpt lat="46.39665" lon="2.45167">
        <ele>354</ele>
        <time>2025-07-27T15:07:57.000Z</time>
      </trkpt>
      <trkpt lat="46.39666" lon="2.4513">
        <ele>354</ele>
        <time>2025-07-27T15:08:26.000Z</time>
      </trkpt>
      <trkpt lat="46.39657" lon="2.45061">
        <ele>355</ele>
        <time>2025-07-27T15:09:31.000Z</time>
      </trkpt>
      <trkpt lat="46.39649" lon="2.45039">
        <ele>355</ele>
        <time>2025-07-27T15:09:50.000Z</time>
      </trkpt>
      <trkpt lat="46.39499" lon="2.4528">
        <ele>357</ele>
        <time>2025-07-27T15:14:27.000Z</time>
      </trkpt>
      <trkpt lat="46.3912" lon="2.44701">
        <ele>364</ele>
        <time>2025-07-27T15:26:09.000Z</time>
      </trkpt>
      <trkpt lat="46.39109" lon="2.44692">
        <ele>364</ele>
        <time>2025-07-27T15:26:24.000Z</time>
      </trkpt>
      <trkpt lat="46.39099" lon="2.44693">
        <ele>364</ele>
        <time>2025-07-27T15:26:35.000Z</time>
      </trkpt>
      <trkpt lat="46.38874" lon="2.45013">
        <ele>369</ele>
        <time>2025-07-27T15:33:28.000Z</time>
      </trkpt>
      <trkpt lat="46.38864" lon="2.45018">
        <ele>369</ele>
        <time>2025-07-27T15:33:40.000Z</time>
      </trkpt>
      <trkpt lat="46.38832" lon="2.4499">
        <ele>371</ele>
        <time>2025-07-27T15:34:44.000Z</time>
      </trkpt>
      <trkpt lat="46.38812" lon="2.4499">
        <ele>373</ele>
        <time>2025-07-27T15:35:27.000Z</time>
      </trkpt>
      <trkpt lat="46.38705" lon="2.44999">
        <ele>377</ele>
        <time>2025-07-27T15:38:11.000Z</time>
      </trkpt>
      <trkpt lat="46.38597" lon="2.45015">
        <ele>383</ele>
        <time>2025-07-27T15:41:17.000Z</time>
      </trkpt>
      <trkpt lat="46.38438" lon="2.45068">
        <ele>376</ele>
        <time>2025-07-27T15:44:24.000Z</time>
      </trkpt>
      <trkpt lat="46.38288" lon="2.45117">
        <ele>369</ele>
        <time>2025-07-27T15:47:19.000Z</time>
      </trkpt>
      <trkpt lat="46.38273" lon="2.45113">
        <ele>369</ele>
        <time>2025-07-27T15:47:36.000Z</time>
      </trkpt>
      <trkpt lat="46.38252" lon="2.45098">
        <ele>369</ele>
        <time>2025-07-27T15:48:03.000Z</time>
      </trkpt>
      <trkpt lat="46.38234" lon="2.45068">
        <ele>369</ele>
        <time>2025-07-27T15:48:34.000Z</time>
      </trkpt>
      <trkpt lat="46.38223" lon="2.45039">
        <ele>369</ele>
        <time>2025-07-27T15:49:00.000Z</time>
      </trkpt>
      <trkpt lat="46.38126" lon="2.45076">
        <ele>368</ele>
        <time>2025-07-27T15:50:55.000Z</time>
      </trkpt>
      <trkpt lat="46.38129" lon="2.45039">
        <ele>368</ele>
        <time>2025-07-27T15:51:24.000Z</time>
      </trkpt>
      <trkpt lat="46.38129" lon="2.45">
        <ele>369</ele>
        <time>2025-07-27T15:52:05.000Z</time>
      </trkpt>
      <trkpt lat="46.38113" lon="2.44991">
        <ele>369</ele>
        <time>2025-07-27T15:52:25.000Z</time>
      </trkpt>
      <trkpt lat="46.38104" lon="2.44997">
        <ele>370</ele>
        <time>2025-07-27T15:52:47.000Z</time>
      </trkpt>
      <trkpt lat="46.38066" lon="2.45023">
        <ele>369</ele>
        <time>2025-07-27T15:53:35.000Z</time>
      </trkpt>
      <trkpt lat="46.38042" lon="2.45026">
        <ele>369</ele>
        <time>2025-07-27T15:54:03.000Z</time>
      </trkpt>
      <trkpt lat="46.38003" lon="2.45027">
        <ele>368</ele>
        <time>2025-07-27T15:54:47.000Z</time>
      </trkpt>
      <trkpt lat="46.37961" lon="2.45043">
        <ele>366</ele>
        <time>2025-07-27T15:55:37.000Z</time>
      </trkpt>
      <trkpt lat="46.37934" lon="2.45057">
        <ele>365</ele>
        <time>2025-07-27T15:56:09.000Z</time>
      </trkpt>
      <trkpt lat="46.37927" lon="2.45067">
        <ele>364</ele>
        <time>2025-07-27T15:56:21.000Z</time>
      </trkpt>
      <trkpt lat="46.37918" lon="2.45097">
        <ele>362</ele>
        <time>2025-07-27T15:56:47.000Z</time>
      </trkpt>
      <trkpt lat="46.37901" lon="2.45117">
        <ele>359</ele>
        <time>2025-07-27T15:57:12.000Z</time>
      </trkpt>
      <trkpt lat="46.37876" lon="2.45138">
        <ele>356</ele>
        <time>2025-07-27T15:57:45.000Z</time>
      </trkpt>
      <trkpt lat="46.37768" lon="2.45206">
        <ele>345</ele>
        <time>2025-07-27T16:00:00.000Z</time>
      </trkpt>
      <trkpt lat="46.37765" lon="2.45227">
        <ele>344</ele>
        <time>2025-07-27T16:00:17.000Z</time>
      </trkpt>
      <trkpt lat="46.37767" lon="2.45294">
        <ele>341</ele>
        <time>2025-07-27T16:01:10.000Z</time>
      </trkpt>
      <trkpt lat="46.37767" lon="2.45366">
        <ele>339</ele>
        <time>2025-07-27T16:02:06.000Z</time>
      </trkpt>
      <trkpt lat="46.37759" lon="2.45408">
        <ele>338</ele>
        <time>2025-07-27T16:02:41.000Z</time>
      </trkpt>
      <trkpt lat="46.37762" lon="2.4543">
        <ele>337</ele>
        <time>2025-07-27T16:02:59.000Z</time>
      </trkpt>
      <trkpt lat="46.37769" lon="2.45448">
        <ele>338</ele>
        <time>2025-07-27T16:03:25.000Z</time>
      </trkpt>
      <trkpt lat="46.3779" lon="2.45455">
        <ele>340</ele>
        <time>2025-07-27T16:04:10.000Z</time>
      </trkpt>
      <trkpt lat="46.37804" lon="2.45481">
        <ele>340</ele>
        <time>2025-07-27T16:04:36.000Z</time>
      </trkpt>
      <trkpt lat="46.37841" lon="2.45608">
        <ele>334</ele>
        <time>2025-07-27T16:06:24.000Z</time>
      </trkpt>
      <trkpt lat="46.37823" lon="2.4562">
        <ele>332</ele>
        <time>2025-07-27T16:06:46.000Z</time>
      </trkpt>
      <trkpt lat="46.37807" lon="2.4565">
        <ele>329</ele>
        <time>2025-07-27T16:07:16.000Z</time>
      </trkpt>
      <trkpt lat="46.37782" lon="2.45728">
        <ele>323</ele>
        <time>2025-07-27T16:08:24.000Z</time>
      </trkpt>
      <trkpt lat="46.3778" lon="2.45771">
        <ele>318</ele>
        <time>2025-07-27T16:08:58.000Z</time>
      </trkpt>
      <trkpt lat="46.37792" lon="2.45827">
        <ele>313</ele>
        <time>2025-07-27T16:09:44.000Z</time>
      </trkpt>
      <trkpt lat="46.37795" lon="2.45857">
        <ele>312</ele>
        <time>2025-07-27T16:10:08.000Z</time>
      </trkpt>
      <trkpt lat="46.37748" lon="2.45976">
        <ele>305</ele>
        <time>2025-07-27T16:11:56.000Z</time>
      </trkpt>
      <trkpt lat="46.3773" lon="2.4601">
        <ele>301</ele>
        <time>2025-07-27T16:12:31.000Z</time>
      </trkpt>
      <trkpt lat="46.37702" lon="2.46041">
        <ele>298</ele>
        <time>2025-07-27T16:13:11.000Z</time>
      </trkpt>
      <trkpt lat="46.37694" lon="2.46066">
        <ele>296</ele>
        <time>2025-07-27T16:13:33.000Z</time>
      </trkpt>
      <trkpt lat="46.37687" lon="2.46118">
        <ele>295</ele>
        <time>2025-07-27T16:14:15.000Z</time>
      </trkpt>
      <trkpt lat="46.37708" lon="2.46126">
        <ele>294</ele>
        <time>2025-07-27T16:14:40.000Z</time>
      </trkpt>
      <trkpt lat="46.37727" lon="2.46147">
        <ele>293</ele>
        <time>2025-07-27T16:15:07.000Z</time>
      </trkpt>
      <trkpt lat="46.37728" lon="2.46168">
        <ele>294</ele>
        <time>2025-07-27T16:15:34.000Z</time>
      </trkpt>
      <trkpt lat="46.3773" lon="2.46199">
        <ele>294</ele>
        <time>2025-07-27T16:15:58.000Z</time>
      </trkpt>
      <trkpt lat="46.37742" lon="2.46206">
        <ele>295</ele>
        <time>2025-07-27T16:16:22.000Z</time>
      </trkpt>
      <trkpt lat="46.37765" lon="2.46213">
        <ele>299</ele>
        <time>2025-07-27T16:17:31.000Z</time>
      </trkpt>
      <trkpt lat="46.37799" lon="2.46238">
        <ele>302</ele>
        <time>2025-07-27T16:18:45.000Z</time>
      </trkpt>
      <trkpt lat="46.3783" lon="2.46267">
        <ele>305</ele>
        <time>2025-07-27T16:19:58.000Z</time>
      </trkpt>
      <trkpt lat="46.37839" lon="2.46309">
        <ele>301</ele>
        <time>2025-07-27T16:20:33.000Z</time>
      </trkpt>
      <trkpt lat="46.37847" lon="2.46338">
        <ele>303</ele>
        <time>2025-07-27T16:21:18.000Z</time>
      </trkpt>
      <trkpt lat="46.37846" lon="2.46388">
        <ele>302</ele>
        <time>2025-07-27T16:21:57.000Z</time>
      </trkpt>
      <trkpt lat="46.37844" lon="2.4642">
        <ele>302</ele>
        <time>2025-07-27T16:22:22.000Z</time>
      </trkpt>
      <trkpt lat="46.37832" lon="2.46444">
        <ele>299</ele>
        <time>2025-07-27T16:22:46.000Z</time>
      </trkpt>
      <trkpt lat="46.37828" lon="2.46466">
        <ele>299</ele>
        <time>2025-07-27T16:23:04.000Z</time>
      </trkpt>
      <trkpt lat="46.37833" lon="2.46485">
        <ele>300</ele>
        <time>2025-07-27T16:23:30.000Z</time>
      </trkpt>
      <trkpt lat="46.37844" lon="2.46506">
        <ele>302</ele>
        <time>2025-07-27T16:24:12.000Z</time>
      </trkpt>
      <trkpt lat="46.37858" lon="2.46532">
        <ele>304</ele>
        <time>2025-07-27T16:24:59.000Z</time>
      </trkpt>
      <trkpt lat="46.37866" lon="2.46539">
        <ele>306</ele>
        <time>2025-07-27T16:25:31.000Z</time>
      </trkpt>
      <trkpt lat="46.37893" lon="2.4655">
        <ele>310</ele>
        <time>2025-07-27T16:26:44.000Z</time>
      </trkpt>
      <trkpt lat="46.37907" lon="2.46604">
        <ele>311</ele>
        <time>2025-07-27T16:27:39.000Z</time>
      </trkpt>
      <trkpt lat="46.37921" lon="2.46648">
        <ele>310</ele>
        <time>2025-07-27T16:28:18.000Z</time>
      </trkpt>
      <trkpt lat="46.37937" lon="2.4673">
        <ele>303</ele>
        <time>2025-07-27T16:29:25.000Z</time>
      </trkpt>
      <trkpt lat="46.37946" lon="2.46747">
        <ele>302</ele>
        <time>2025-07-27T16:29:42.000Z</time>
      </trkpt>
      <trkpt lat="46.37964" lon="2.46754">
        <ele>304</ele>
        <time>2025-07-27T16:30:24.000Z</time>
      </trkpt>
      <trkpt lat="46.37972" lon="2.46768">
        <ele>306</ele>
        <time>2025-07-27T16:30:59.000Z</time>
      </trkpt>
      <trkpt lat="46.3797" lon="2.4679">
        <ele>306</ele>
        <time>2025-07-27T16:31:17.000Z</time>
      </trkpt>
      <trkpt lat="46.37958" lon="2.46809">
        <ele>304</ele>
        <time>2025-07-27T16:31:38.000Z</time>
      </trkpt>
      <trkpt lat="46.3796" lon="2.46831">
        <ele>305</ele>
        <time>2025-07-27T16:32:06.000Z</time>
      </trkpt>
      <trkpt lat="46.37976" lon="2.4687">
        <ele>308</ele>
        <time>2025-07-27T16:33:13.000Z</time>
      </trkpt>
      <trkpt lat="46.37968" lon="2.46884">
        <ele>307</ele>
        <time>2025-07-27T16:33:28.000Z</time>
      </trkpt>
      <trkpt lat="46.37949" lon="2.46897">
        <ele>305</ele>
        <time>2025-07-27T16:33:52.000Z</time>
      </trkpt>
      <trkpt lat="46.37922" lon="2.46913">
        <ele>301</ele>
        <time>2025-07-27T16:34:25.000Z</time>
      </trkpt>
      <trkpt lat="46.37894" lon="2.46923">
        <ele>295</ele>
        <time>2025-07-27T16:34:58.000Z</time>
      </trkpt>
      <trkpt lat="46.37886" lon="2.46933">
        <ele>296</ele>
        <time>2025-07-27T16:35:20.000Z</time>
      </trkpt>
      <trkpt lat="46.37881" lon="2.46943">
        <ele>296</ele>
        <time>2025-07-27T16:35:30.000Z</time>
      </trkpt>
      <trkpt lat="46.37869" lon="2.46951">
        <ele>293</ele>
        <time>2025-07-27T16:35:45.000Z</time>
      </trkpt>
      <trkpt lat="46.37848" lon="2.46961">
        <ele>288</ele>
        <time>2025-07-27T16:36:11.000Z</time>
      </trkpt>
      <trkpt lat="46.37834" lon="2.46975">
        <ele>286</ele>
        <time>2025-07-27T16:36:30.000Z</time>
      </trkpt>
      <trkpt lat="46.37824" lon="2.47005">
        <ele>287</ele>
        <time>2025-07-27T16:37:06.000Z</time>
      </trkpt>
      <trkpt lat="46.37817" lon="2.47022">
        <ele>287</ele>
        <time>2025-07-27T16:37:22.000Z</time>
      </trkpt>
      <trkpt lat="46.37807" lon="2.47078">
        <ele>287</ele>
        <time>2025-07-27T16:38:08.000Z</time>
      </trkpt>
      <trkpt lat="46.37808" lon="2.47115">
        <ele>286</ele>
        <time>2025-07-27T16:38:37.000Z</time>
      </trkpt>
      <trkpt lat="46.37798" lon="2.47142">
        <ele>291</ele>
        <time>2025-07-27T16:39:53.000Z</time>
      </trkpt>
      <trkpt lat="46.3778" lon="2.47157">
        <ele>295</ele>
        <time>2025-07-27T16:40:58.000Z</time>
      </trkpt>
      <trkpt lat="46.37772" lon="2.47166">
        <ele>298</ele>
        <time>2025-07-27T16:41:40.000Z</time>
      </trkpt>
      <trkpt lat="46.37778" lon="2.47178">
        <ele>298</ele>
        <time>2025-07-27T16:41:52.000Z</time>
      </trkpt>
      <trkpt lat="46.37804" lon="2.47186">
        <ele>294</ele>
        <time>2025-07-27T16:42:22.000Z</time>
      </trkpt>
      <trkpt lat="46.37808" lon="2.47196">
        <ele>295</ele>
        <time>2025-07-27T16:42:41.000Z</time>
      </trkpt>
      <trkpt lat="46.37777" lon="2.472">
        <ele>299</ele>
        <time>2025-07-27T16:43:58.000Z</time>
      </trkpt>
      <trkpt lat="46.37748" lon="2.47211">
        <ele>302</ele>
        <time>2025-07-27T16:45:04.000Z</time>
      </trkpt>
      <trkpt lat="46.37683" lon="2.47255">
        <ele>306</ele>
        <time>2025-07-27T16:47:08.000Z</time>
      </trkpt>
      <trkpt lat="46.37639" lon="2.4728">
        <ele>311</ele>
        <time>2025-07-27T16:48:53.000Z</time>
      </trkpt>
      <trkpt lat="46.37626" lon="2.47291">
        <ele>313</ele>
        <time>2025-07-27T16:49:31.000Z</time>
      </trkpt>
      <trkpt lat="46.37609" lon="2.4732">
        <ele>316</ele>
        <time>2025-07-27T16:50:32.000Z</time>
      </trkpt>
      <trkpt lat="46.37578" lon="2.47362">
        <ele>321</ele>
        <time>2025-07-27T16:52:12.000Z</time>
      </trkpt>
      <trkpt lat="46.37574" lon="2.47379">
        <ele>323</ele>
        <time>2025-07-27T16:52:47.000Z</time>
      </trkpt>
    </trkseg>
  </trk>
</gpx>